Time;durP1;ratioP1;P1;durP2;ratioP2;P2;SDS_P1;SDS_P2;PMS_P1;PMS_P2;Temp;Humidity;BMP_temperature;BMP_pressure;BME280_temperature;BME280_humidity;BME280_pressure;Samples;Min_cycle;Max_cycle;Signal;HPM_P1;HPM_P2
2022/06/15 00:01:33;;;;;;;87.00;12.07;;;;;;;;;;5082419;28;20024;-56
2022/06/15 00:04:03;;;;;;;91.30;13.15;;;;;;;;;;5080844;28;20119;-56
2022/06/15 00:06:31;;;;;;;91.32;12.75;;;;;;;;;;5088546;28;20035;-57
2022/06/15 00:08:59;;;;;;;92.72;13.57;;;;;;;;;;5092734;28;20063;-58
2022/06/15 00:11:28;;;;;;;81.03;12.93;;;;;;;;;;5091643;28;20036;-58
2022/06/15 00:13:57;;;;;;;83.45;14.40;;;;;;;;;;5091335;28;20048;-59
2022/06/15 00:16:24;;;;;;;80.65;12.85;;;;;;;;;;5074340;28;20647;-58
2022/06/15 00:18:52;;;;;;;78.32;13.70;;;;;;;;;;5085982;28;20424;-58
2022/06/15 00:21:20;;;;;;;97.03;13.30;;;;;;;;;;5088192;28;20115;-57
2022/06/15 00:23:47;;;;;;;68.18;11.80;;;;;;;;;;5091888;28;20394;-57
2022/06/15 00:26:15;;;;;;;84.10;13.35;;;;;;;;;;5091604;28;20529;-58
2022/06/15 00:28:42;;;;;;;74.22;12.82;;;;;;;;;;5092070;28;20379;-59
2022/06/15 00:31:09;;;;;;;74.95;13.68;;;;;;;;;;5091365;28;20084;-59
2022/06/15 00:33:36;;;;;;;84.45;12.82;;;;;;;;;;5090351;28;20172;-57
2022/06/15 00:36:05;;;;;;;73.05;13.65;;;;;;;;;;5079637;28;20025;-59
2022/06/15 00:38:40;;;;;;;81.32;13.45;;;;;;;;;;5081763;28;20128;-54
2022/06/15 00:41:08;;;;;;;72.47;13.43;;;;;;;;;;5079964;28;20028;-59
2022/06/15 00:43:37;;;;;;;67.22;11.55;;;;;;;;;;5081093;28;20111;-57
2022/06/15 00:46:21;;;;;;;65.80;12.10;;;;;;;;;;5079970;28;20074;-57
2022/06/15 00:48:50;;;;;;;67.50;12.48;;;;;;;;;;5078893;28;20105;-57
2022/06/15 00:51:17;;;;;;;81.75;13.65;;;;;;;;;;5080824;28;20541;-56
2022/06/15 00:53:44;;;;;;;75.07;13.95;;;;;;;;;;5080279;28;20039;-57
2022/06/15 00:56:12;;;;;;;77.45;16.10;;;;;;;;;;5088581;28;20462;-58
2022/06/15 00:58:40;;;;;;;102.35;23.98;;;;;;;;;;5091178;28;20067;-59
2022/06/15 01:01:08;;;;;;;143.30;31.83;;;;;;;;;;5091385;28;20107;-57
2022/06/15 01:03:37;;;;;;;142.93;34.03;;;;;;;;;;5091482;28;20035;-57
2022/06/15 01:06:10;;;;;;;149.63;35.00;;;;;;;;;;5072318;28;20610;-58
2022/06/15 01:08:59;;;;;;;148.35;37.90;;;;;;;;;;5091096;28;20571;-58
2022/06/15 01:11:40;;;;;;;159.38;37.85;;;;;;;;;;5091309;28;20508;-60
2022/06/15 01:14:17;;;;;;;154.02;37.90;;;;;;;;;;5091425;28;20032;-59
2022/06/15 01:17:00;;;;;;;160.13;39.60;;;;;;;;;;5090467;28;20072;-57
2022/06/15 01:19:45;;;;;;;153.85;42.67;;;;;;;;;;5090654;28;20569;-57
2022/06/15 01:22:34;;;;;;;149.90;42.58;;;;;;;;;;5090964;28;20055;-59
2022/06/15 01:25:19;;;;;;;160.13;41.42;;;;;;;;;;5089503;28;20077;-58
2022/06/15 01:28:04;;;;;;;168.98;43.13;;;;;;;;;;5082056;28;20023;-59
2022/06/15 01:30:47;;;;;;;159.48;42.10;;;;;;;;;;5080620;28;20027;-58
2022/06/15 01:33:13;;;;;;;;;;;;;;;;;;5078530;28;20044;-59
2022/06/15 01:35:49;;;;;;;141.18;39.50;;;;;;;;;;5073230;28;19973;-60
2022/06/15 01:38:22;;;;;;;143.75;39.60;;;;;;;;;;5071515;28;20021;-61
2022/06/15 01:40:58;;;;;;;149.85;39.15;;;;;;;;;;5071442;28;20429;-61
2022/06/15 01:43:28;;;;;;;146.45;38.08;;;;;;;;;;5071358;28;20155;-60
2022/06/15 01:45:56;;;;;;;142.82;37.90;;;;;;;;;;5071234;28;20020;-59
2022/06/15 01:48:23;;;;;;;129.95;35.92;;;;;;;;;;5074252;28;20028;-60
2022/06/15 01:50:53;;;;;;;145.18;36.70;;;;;;;;;;5081313;28;20482;-59
2022/06/15 01:53:23;;;;;;;126.00;35.65;;;;;;;;;;5073194;28;20435;-58
2022/06/15 01:55:53;;;;;;;138.23;34.10;;;;;;;;;;5088367;28;20032;-59
2022/06/15 01:58:22;;;;;;;127.40;34.47;;;;;;;;;;5089810;28;20031;-60
2022/06/15 02:01:09;;;;;;;123.47;34.75;;;;;;;;;;5087461;28;20016;-59
2022/06/15 02:03:54;;;;;;;114.68;33.03;;;;;;;;;;5083859;28;20032;-58
2022/06/15 02:06:33;;;;;;;136.40;31.58;;;;;;;;;;5080020;28;20034;-59
2022/06/15 02:09:14;;;;;;;124.00;33.28;;;;;;;;;;5091733;28;20859;-58
2022/06/15 02:11:42;;;;;;;132.77;31.83;;;;;;;;;;5064292;28;20716;-58
2022/06/15 02:14:15;;;;;;;116.40;31.55;;;;;;;;;;5089717;28;20030;-59
2022/06/15 02:16:48;;;;;;;124.95;31.48;;;;;;;;;;5096565;28;20028;-60
2022/06/15 02:19:17;;;;;;;108.28;30.17;;;;;;;;;;5088023;28;20024;-61
2022/06/15 02:21:47;;;;;;;114.45;30.23;;;;;;;;;;5061921;28;20028;-58
2022/06/15 02:24:16;;;;;;;95.97;28.38;;;;;;;;;;5085736;28;20498;-57
2022/06/15 02:26:44;;;;;;;113.75;29.00;;;;;;;;;;5083237;28;20512;-57
2022/06/15 02:29:14;;;;;;;99.50;27.10;;;;;;;;;;5085371;28;20023;-57
2022/06/15 02:31:42;;;;;;;93.88;27.25;;;;;;;;;;5077604;28;20047;-56
2022/06/15 02:34:09;;;;;;;107.47;27.83;;;;;;;;;;5067405;28;20834;-58
2022/06/15 02:36:36;;;;;;;102.03;25.60;;;;;;;;;;5062023;28;20036;-60
2022/06/15 02:39:05;;;;;;;95.53;27.10;;;;;;;;;;5061242;28;20111;-57
2022/06/15 02:41:32;;;;;;;101.25;28.25;;;;;;;;;;5064861;28;20090;-57
2022/06/15 02:43:59;;;;;;;91.93;27.08;;;;;;;;;;5061209;28;20478;-58
2022/06/15 02:46:27;;;;;;;85.13;25.30;;;;;;;;;;5043292;28;20025;-59
2022/06/15 02:48:55;;;;;;;93.80;25.92;;;;;;;;;;5064968;28;20025;-57
2022/06/15 02:51:22;;;;;;;84.47;24.92;;;;;;;;;;5059267;28;20394;-58
2022/06/15 02:53:52;;;;;;;87.13;25.23;;;;;;;;;;5065999;28;20704;-57
2022/06/15 02:56:20;;;;;;;87.50;24.60;;;;;;;;;;5061724;28;20064;-59
2022/06/15 02:58:48;;;;;;;77.72;25.35;;;;;;;;;;5062302;28;20050;-57
2022/06/15 03:01:16;;;;;;;78.32;24.90;;;;;;;;;;5062302;28;20547;-57
2022/06/15 03:03:43;;;;;;;83.20;23.98;;;;;;;;;;5058963;28;20669;-60
2022/06/15 03:06:14;;;;;;;82.03;24.40;;;;;;;;;;5061583;28;20037;-58
2022/06/15 03:08:41;;;;;;;71.50;23.25;;;;;;;;;;5055520;28;20032;-57
2022/06/15 03:11:08;;;;;;;72.30;22.10;;;;;;;;;;5060756;28;20036;-58
2022/06/15 03:13:35;;;;;;;74.55;22.25;;;;;;;;;;5054981;28;20029;-56
2022/06/15 03:16:03;;;;;;;75.65;23.25;;;;;;;;;;5070437;28;20024;-56
2022/06/15 03:18:31;;;;;;;72.43;21.80;;;;;;;;;;5073552;28;20036;-56
2022/06/15 03:20:58;;;;;;;73.15;22.45;;;;;;;;;;5072607;28;20414;-57
2022/06/15 03:23:26;;;;;;;64.57;21.73;;;;;;;;;;5068666;28;20016;-55
2022/06/15 03:25:54;;;;;;;58.25;20.67;;;;;;;;;;5044599;28;20029;-57
2022/06/15 03:28:21;;;;;;;65.00;21.33;;;;;;;;;;5048378;28;20035;-55
2022/06/15 03:30:48;;;;;;;59.65;19.98;;;;;;;;;;5063865;28;20128;-60
2022/06/15 03:33:15;;;;;;;66.80;20.80;;;;;;;;;;5050054;28;20509;-58
2022/06/15 03:35:42;;;;;;;61.08;20.05;;;;;;;;;;5054723;28;20033;-57
2022/06/15 03:38:09;;;;;;;71.15;20.90;;;;;;;;;;5054759;28;20032;-57
2022/06/15 03:40:37;;;;;;;64.65;19.73;;;;;;;;;;5055273;28;20517;-55
2022/06/15 03:43:04;;;;;;;56.80;19.05;;;;;;;;;;5054630;28;20056;-56
2022/06/15 03:45:31;;;;;;;51.95;18.67;;;;;;;;;;5054655;28;20028;-57
2022/06/15 03:47:58;;;;;;;60.38;18.80;;;;;;;;;;5059567;28;20032;-56
2022/06/15 03:50:25;;;;;;;55.78;18.55;;;;;;;;;;5073611;28;20032;-54
2022/06/15 03:52:52;;;;;;;55.17;18.23;;;;;;;;;;5074025;28;20071;-56
2022/06/15 03:55:20;;;;;;;56.67;17.95;;;;;;;;;;5074887;28;20032;-57
2022/06/15 03:57:47;;;;;;;57.38;18.38;;;;;;;;;;5074559;28;20036;-53
2022/06/15 04:00:16;;;;;;;53.10;17.45;;;;;;;;;;5074281;28;20023;-55
2022/06/15 04:02:43;;;;;;;50.90;17.00;;;;;;;;;;5074882;28;20029;-54
2022/06/15 04:05:15;;;;;;;57.15;17.77;;;;;;;;;;5075092;28;20040;-54
2022/06/15 04:08:42;;;;;;;43.83;15.85;;;;;;;;;;5073747;28;20098;-53
2022/06/15 04:10:38;;;;;;;45.95;15.05;;;;;;;;;;5056988;28;20037;-53
2022/06/15 04:13:05;;;;;;;46.55;15.10;;;;;;;;;;5074164;28;20070;-56
2022/06/15 04:15:32;;;;;;;47.08;16.02;;;;;;;;;;5074266;28;20081;-55
2022/06/15 04:17:59;;;;;;;44.67;16.30;;;;;;;;;;5074376;28;20021;-55
2022/06/15 04:20:33;;;;;;;49.80;15.95;;;;;;;;;;5073780;28;20073;-57
2022/06/15 04:23:07;;;;;;;41.65;14.50;;;;;;;;;;5074513;28;20068;-55
2022/06/15 04:25:53;;;;;;;44.88;15.63;;;;;;;;;;5073732;28;20021;-53
2022/06/15 04:28:21;;;;;;;45.42;14.70;;;;;;;;;;5074098;28;20107;-54
2022/06/15 04:30:49;;;;;;;43.65;14.77;;;;;;;;;;5073284;28;20479;-53
2022/06/15 04:33:16;;;;;;;40.55;14.32;;;;;;;;;;5091125;28;20040;-55
2022/06/15 04:35:43;;;;;;;41.65;15.00;;;;;;;;;;5094243;28;20028;-55
2022/06/15 04:38:11;;;;;;;39.50;13.60;;;;;;;;;;5093616;28;20072;-52
2022/06/15 04:40:39;;;;;;;44.35;14.65;;;;;;;;;;5094345;28;20028;-53
2022/06/15 04:43:06;;;;;;;40.83;14.50;;;;;;;;;;5094107;28;20024;-53
2022/06/15 04:45:34;;;;;;;38.95;13.82;;;;;;;;;;5075690;28;20490;-57
2022/06/15 04:48:02;;;;;;;34.67;13.27;;;;;;;;;;5093354;28;20136;-56
2022/06/15 04:50:29;;;;;;;37.40;12.70;;;;;;;;;;5094108;28;20051;-53
2022/06/15 04:52:56;;;;;;;38.67;13.70;;;;;;;;;;5093204;28;20035;-57
2022/06/15 04:55:24;;;;;;;34.80;12.60;;;;;;;;;;5093615;28;20032;-53
2022/06/15 04:57:54;;;;;;;41.90;13.32;;;;;;;;;;5093405;28;20447;-56
2022/06/15 05:00:23;;;;;;;34.75;12.32;;;;;;;;;;5093841;28;20036;-53
2022/06/15 05:02:50;;;;;;;34.03;12.70;;;;;;;;;;5093854;28;20545;-55
2022/06/15 05:05:17;;;;;;;35.83;12.50;;;;;;;;;;5093367;28;20042;-55
2022/06/15 05:07:45;;;;;;;36.75;12.10;;;;;;;;;;5093787;28;20551;-53
2022/06/15 05:10:16;;;;;;;40.10;11.52;;;;;;;;;;5092971;28;20081;-52
2022/06/15 05:12:43;;;;;;;32.05;11.55;;;;;;;;;;5093040;28;20032;-50
2022/06/15 05:15:13;;;;;;;34.03;12.13;;;;;;;;;;5093285;28;20044;-54
2022/06/15 05:17:41;;;;;;;31.30;11.30;;;;;;;;;;5093659;28;20036;-55
2022/06/15 05:20:09;;;;;;;31.95;11.50;;;;;;;;;;5092699;28;20488;-54
2022/06/15 05:22:39;;;;;;;26.48;10.57;;;;;;;;;;5075356;28;20032;-54
2022/06/15 05:25:07;;;;;;;29.92;11.18;;;;;;;;;;5073250;28;20056;-54
2022/06/15 05:27:36;;;;;;;33.22;10.85;;;;;;;;;;5054834;28;20444;-55
2022/06/15 05:30:04;;;;;;;30.10;10.77;;;;;;;;;;5073337;28;20040;-56
2022/06/15 05:32:31;;;;;;;32.20;10.27;;;;;;;;;;5071908;28;20522;-55
2022/06/15 05:34:58;;;;;;;35.60;11.35;;;;;;;;;;5072516;28;20092;-52
2022/06/15 05:37:25;;;;;;;27.55;10.48;;;;;;;;;;5072525;28;20066;-53
2022/06/15 05:39:52;;;;;;;29.42;10.45;;;;;;;;;;5071251;28;20032;-53
2022/06/15 05:42:19;;;;;;;25.60;9.98;;;;;;;;;;5072642;28;20020;-52
2022/06/15 05:47:12;;;;;;;26.58;9.55;;;;;;;;;;5072392;28;20028;-50
2022/06/15 05:49:39;;;;;;;29.73;10.10;;;;;;;;;;5072117;28;20032;-53
2022/06/15 05:52:06;;;;;;;27.85;10.25;;;;;;;;;;5072818;28;20032;-54
2022/06/15 05:54:33;;;;;;;26.13;9.93;;;;;;;;;;5071853;28;20039;-53
2022/06/15 05:57:00;;;;;;;19.90;9.38;;;;;;;;;;5072527;28;20016;-54
2022/06/15 05:59:28;;;;;;;24.83;9.45;;;;;;;;;;5072617;28;20033;-52
2022/06/15 06:01:54;;;;;;;21.98;8.70;;;;;;;;;;5071522;28;20549;-54
2022/06/15 06:04:21;;;;;;;23.88;8.90;;;;;;;;;;5072502;28;20090;-53
2022/06/15 06:06:48;;;;;;;23.38;8.95;;;;;;;;;;5072269;28;20020;-53
2022/06/15 06:09:16;;;;;;;21.48;7.82;;;;;;;;;;5071810;28;20025;-54
2022/06/15 06:11:43;;;;;;;29.17;8.57;;;;;;;;;;5072446;28;20023;-54
2022/06/15 06:14:10;;;;;;;22.08;9.07;;;;;;;;;;5071547;28;20137;-54
2022/06/15 06:16:37;;;;;;;21.63;8.48;;;;;;;;;;5072203;28;20502;-55
2022/06/15 06:19:03;;;;;;;19.45;7.90;;;;;;;;;;5072069;28;20115;-52
2022/06/15 06:21:30;;;;;;;17.50;7.60;;;;;;;;;;5071575;28;20052;-56
2022/06/15 06:23:57;;;;;;;23.70;8.25;;;;;;;;;;5072391;28;20028;-55
2022/06/15 06:26:26;;;;;;;17.40;7.90;;;;;;;;;;5071917;28;20017;-48
2022/06/15 06:28:53;;;;;;;23.40;7.97;;;;;;;;;;5071535;28;20546;-54
2022/06/15 06:31:20;;;;;;;18.90;7.22;;;;;;;;;;5219666;22;20044;-59
2022/06/15 06:33:48;;;;;;;21.67;7.80;;;;;;;;;;5052932;28;20033;-60
2022/06/15 06:36:19;;;;;;;22.35;7.97;;;;;;;;;;5051133;28;20021;-60
2022/06/15 06:38:47;;;;;;;23.77;8.03;;;;;;;;;;5052450;28;20029;-60
2022/06/15 06:41:17;;;;;;;20.85;7.45;;;;;;;;;;5051373;28;20029;-60
2022/06/15 06:43:44;;;;;;;19.83;7.90;;;;;;;;;;5052072;28;20025;-60
2022/06/15 06:46:11;;;;;;;24.00;8.10;;;;;;;;;;5052127;28;20037;-59
2022/06/15 06:48:38;;;;;;;25.23;8.57;;;;;;;;;;5052052;28;20538;-59
2022/06/15 06:51:05;;;;;;;17.20;6.70;;;;;;;;;;5052178;28;20387;-60
2022/06/15 06:53:32;;;;;;;19.15;7.15;;;;;;;;;;5056211;28;20064;-60
2022/06/15 06:56:00;;;;;;;17.58;7.15;;;;;;;;;;5055514;28;20013;-60
2022/06/15 06:58:27;;;;;;;17.70;6.80;;;;;;;;;;5055863;28;20367;-60
2022/06/15 07:00:54;;;;;;;16.65;6.65;;;;;;;;;;5055631;28;20036;-60
2022/06/15 07:03:21;;;;;;;15.60;6.43;;;;;;;;;;5055412;28;20108;-60
2022/06/15 07:05:48;;;;;;;16.38;6.90;;;;;;;;;;5037123;28;20033;-60
2022/06/15 07:08:15;;;;;;;17.73;8.45;;;;;;;;;;5055369;28;20029;-60
2022/06/15 07:10:43;;;;;;;18.90;6.88;;;;;;;;;;5055365;28;20547;-60
2022/06/15 07:13:10;;;;;;;18.05;6.68;;;;;;;;;;5055146;28;20060;-60
2022/06/15 07:15:39;;;;;;;15.40;6.43;;;;;;;;;;5055571;28;20071;-60
2022/06/15 07:18:06;;;;;;;18.50;7.35;;;;;;;;;;5056579;28;20033;-60
2022/06/15 07:20:33;;;;;;;14.77;6.53;;;;;;;;;;5056493;28;20024;-59
2022/06/15 07:23:00;;;;;;;17.90;7.07;;;;;;;;;;5055500;28;20040;-60
2022/06/15 07:25:27;;;;;;;14.68;5.95;;;;;;;;;;5054666;28;20487;-60
2022/06/15 07:27:54;;;;;;;14.30;6.07;;;;;;;;;;5055374;28;20047;-60
2022/06/15 07:30:23;;;;;;;13.32;5.90;;;;;;;;;;5054614;28;20028;-60
2022/06/15 07:32:50;;;;;;;14.90;6.85;;;;;;;;;;5054381;28;20418;-60
2022/06/15 07:35:22;;;;;;;19.55;6.93;;;;;;;;;;5054407;28;20091;-60
2022/06/15 07:37:50;;;;;;;12.15;5.30;;;;;;;;;;5055141;28;20106;-60
2022/06/15 07:40:19;;;;;;;16.73;6.35;;;;;;;;;;5054458;28;20029;-60
2022/06/15 07:42:46;;;;;;;14.60;5.93;;;;;;;;;;5055082;28;20036;-60
2022/06/15 07:45:14;;;;;;;12.18;5.68;;;;;;;;;;5036740;28;20506;-60
2022/06/15 07:50:26;;;;;;;16.77;6.30;;;;;;;;;;5054731;28;20035;-60
2022/06/15 07:52:54;;;;;;;16.38;5.85;;;;;;;;;;5054020;28;20035;-60
2022/06/15 07:55:26;;;;;;;13.80;5.68;;;;;;;;;;5054905;28;20052;-59
2022/06/15 07:57:53;;;;;;;14.32;5.68;;;;;;;;;;5054761;28;20021;-59
2022/06/15 08:00:21;;;;;;;16.67;6.22;;;;;;;;;;5054188;28;20029;-60
2022/06/15 08:02:49;;;;;;;12.27;5.35;;;;;;;;;;5053633;28;20031;-60
2022/06/15 08:05:16;;;;;;;16.30;6.10;;;;;;;;;;5054306;28;20041;-60
2022/06/15 08:07:44;;;;;;;16.75;5.25;;;;;;;;;;5054432;28;20029;-60
2022/06/15 08:10:12;;;;;;;16.67;6.20;;;;;;;;;;5054037;28;20033;-60
2022/06/15 08:12:40;;;;;;;14.27;5.47;;;;;;;;;;5035955;28;20036;-60
2022/06/15 08:15:07;;;;;;;10.20;4.72;;;;;;;;;;5054385;28;20036;-60
2022/06/15 08:17:36;;;;;;;14.00;5.90;;;;;;;;;;5054416;28;20029;-60
2022/06/15 08:20:08;;;;;;;11.25;5.07;;;;;;;;;;5053748;28;20086;-60
2022/06/15 08:22:35;;;;;;;12.20;5.15;;;;;;;;;;5053494;28;20036;-60
2022/06/15 08:25:02;;;;;;;15.32;5.75;;;;;;;;;;5054421;28;20447;-59
2022/06/15 08:27:29;;;;;;;14.10;5.10;;;;;;;;;;5054460;28;20021;-60
2022/06/15 08:29:57;;;;;;;10.10;5.05;;;;;;;;;;5035852;28;20438;-59
2022/06/15 08:32:25;;;;;;;13.30;5.47;;;;;;;;;;5053204;28;20049;-60
2022/06/15 08:34:51;;;;;;;15.95;6.13;;;;;;;;;;5053761;28;20029;-60
2022/06/15 08:37:19;;;;;;;14.13;5.00;;;;;;;;;;5053580;28;20487;-60
2022/06/15 08:39:46;;;;;;;16.85;5.63;;;;;;;;;;5053168;28;20041;-60
2022/06/15 08:42:31;;;;;;;13.15;5.28;;;;;;;;;;5053984;28;20444;-60
2022/06/15 08:44:58;;;;;;;13.50;5.25;;;;;;;;;;5053767;28;20490;-60
2022/06/15 08:47:37;;;;;;;9.70;4.43;;;;;;;;;;5054008;28;20079;-60
2022/06/15 08:50:19;;;;;;;11.20;4.68;;;;;;;;;;5053260;28;20031;-59
2022/06/15 08:52:51;;;;;;;9.20;4.35;;;;;;;;;;5053458;28;20035;-60
2022/06/15 08:55:27;;;;;;;12.38;4.82;;;;;;;;;;5053712;28;20052;-59
2022/06/15 08:57:56;;;;;;;12.75;4.72;;;;;;;;;;5053410;28;20032;-59
2022/06/15 09:00:32;;;;;;;18.15;5.47;;;;;;;;;;5053559;28;20032;-59
2022/06/15 09:03:14;;;;;;;12.63;5.32;;;;;;;;;;5053223;28;20021;-60
2022/06/15 09:05:41;;;;;;;;;;;;;;;;;;5053905;28;20501;-60
2022/06/15 09:08:32;;;;;;;11.82;4.95;;;;;;;;;;5053679;28;20434;-60
2022/06/15 09:11:19;;;;;;;11.77;4.60;;;;;;;;;;5052683;28;20036;-60
2022/06/15 09:13:58;;;;;;;13.90;5.35;;;;;;;;;;5052085;28;20041;-60
2022/06/15 09:16:28;;;;;;;9.55;4.65;;;;;;;;;;5053463;28;20025;-60
2022/06/15 09:19:10;;;;;;;11.82;5.40;;;;;;;;;;5052926;28;20025;-59
2022/06/15 09:21:41;;;;;;;13.77;5.00;;;;;;;;;;5053307;28;20053;-59
2022/06/15 09:24:17;;;;;;;12.35;4.72;;;;;;;;;;5053230;28;20040;-60
2022/06/15 09:26:58;;;;;;;10.43;4.90;;;;;;;;;;5052008;28;20056;-61
2022/06/15 09:29:27;;;;;;;12.73;5.43;;;;;;;;;;5053305;28;20029;-61
2022/06/15 09:31:54;;;;;;;19.42;5.07;;;;;;;;;;5052183;28;20056;-60
2022/06/15 09:34:24;;;;;;;12.35;4.93;;;;;;;;;;5052775;28;20033;-60
2022/06/15 09:36:53;;;;;;;12.82;4.90;;;;;;;;;;5052482;28;20118;-60
2022/06/15 09:39:20;;;;;;;11.02;5.07;;;;;;;;;;5052712;28;20025;-60
2022/06/15 09:41:54;;;;;;;12.00;5.30;;;;;;;;;;5052410;28;20029;-60
2022/06/15 09:44:27;;;;;;;12.43;4.90;;;;;;;;;;5052558;28;20043;-60
2022/06/15 09:47:23;;;;;;;10.75;5.45;;;;;;;;;;5052273;28;20027;-62
2022/06/15 09:49:53;;;;;;;12.27;5.05;;;;;;;;;;4964759;28;20489;-62
2022/06/15 09:52:27;;;;;;;12.98;5.28;;;;;;;;;;5052456;28;20079;-62
2022/06/15 09:55:13;;;;;;;10.77;4.85;;;;;;;;;;5034707;28;20036;-61
2022/06/15 09:57:41;;;;;;;12.75;4.55;;;;;;;;;;5052516;28;20028;-61
2022/06/15 10:00:10;;;;;;;14.75;5.55;;;;;;;;;;5052603;28;20024;-61
2022/06/15 10:02:38;;;;;;;9.43;4.60;;;;;;;;;;5052042;28;20025;-62
2022/06/15 10:05:07;;;;;;;12.07;5.15;;;;;;;;;;5034619;28;20029;-61
2022/06/15 10:07:40;;;;;;;12.50;5.30;;;;;;;;;;5033887;28;20503;-60
2022/06/15 10:10:27;;;;;;;10.95;5.18;;;;;;;;;;5052318;28;20805;-60
2022/06/15 10:13:14;;;;;;;10.95;4.95;;;;;;;;;;5034063;28;20033;-60
2022/06/15 10:15:41;;;;;;;17.23;6.10;;;;;;;;;;5035823;28;20102;-60
2022/06/15 10:18:26;;;;;;;10.70;4.85;;;;;;;;;;5052046;28;20116;-60
2022/06/15 10:21:03;;;;;;;11.18;5.32;;;;;;;;;;5051640;28;20037;-60
2022/06/15 10:23:36;;;;;;;10.57;5.22;;;;;;;;;;5052094;28;20045;-60
2022/06/15 10:26:03;;;;;;;10.30;5.25;;;;;;;;;;5051753;28;20021;-60
2022/06/15 10:28:35;;;;;;;15.90;5.85;;;;;;;;;;5034120;28;20483;-60
2022/06/15 10:31:04;;;;;;;11.57;5.40;;;;;;;;;;5051750;28;20041;-60
2022/06/15 10:33:36;;;;;;;11.85;5.45;;;;;;;;;;5051667;28;20083;-60
2022/06/15 10:36:04;;;;;;;11.73;5.22;;;;;;;;;;5050832;28;20095;-60
2022/06/15 10:38:31;;;;;;;10.75;5.45;;;;;;;;;;5051581;28;20427;-60
2022/06/15 10:43:47;;;;;;;11.70;5.30;;;;;;;;;;5052016;28;20178;-60
2022/06/15 10:46:15;;;;;;;12.07;5.07;;;;;;;;;;5051713;28;20033;-60
2022/06/15 10:48:51;;;;;;;11.43;5.43;;;;;;;;;;5052147;28;20036;-60
2022/06/15 10:51:38;;;;;;;9.52;5.00;;;;;;;;;;5051509;28;20032;-60
2022/06/15 10:54:23;;;;;;;13.95;5.80;;;;;;;;;;5051570;28;20395;-60
2022/06/15 11:02:40;;;;;;;12.88;5.53;;;;;;;;;;5051737;28;20052;-61
2022/06/15 11:05:18;;;;;;;13.30;6.05;;;;;;;;;;5050983;28;20572;-60
2022/06/15 11:07:45;;;;;;;10.43;5.32;;;;;;;;;;5051728;28;20025;-60
2022/06/15 11:10:31;;;;;;;14.75;5.47;;;;;;;;;;5051289;28;20021;-60
2022/06/15 11:13:00;;;;;;;13.70;5.47;;;;;;;;;;5055419;28;20074;-61
2022/06/15 11:18:37;;;;;;;14.68;4.95;;;;;;;;;;5072107;28;20081;-61
2022/06/15 11:21:15;;;;;;;17.95;6.00;;;;;;;;;;5068804;28;20378;-61
2022/06/15 11:23:56;;;;;;;14.65;5.25;;;;;;;;;;5058592;28;20024;-62
2022/06/15 11:29:28;;;;;;;12.35;5.30;;;;;;;;;;5051791;28;20097;-60
2022/06/15 11:31:57;;;;;;;13.23;4.75;;;;;;;;;;5014782;28;20045;-59
2022/06/15 11:34:28;;;;;;;12.98;4.82;;;;;;;;;;5052844;28;20045;-62
2022/06/15 11:36:59;;;;;;;12.87;4.70;;;;;;;;;;5071043;28;20013;-61
2022/06/15 11:39:46;;;;;;;14.13;5.10;;;;;;;;;;5073142;28;20067;-61
2022/06/15 11:42:15;;;;;;;12.13;4.20;;;;;;;;;;5073573;28;20029;-61
2022/06/15 11:44:43;;;;;;;9.75;4.65;;;;;;;;;;5074651;28;20170;-61
2022/06/15 11:47:12;;;;;;;9.13;3.88;;;;;;;;;;5074322;28;20043;-60
2022/06/15 11:49:58;;;;;;;15.68;4.95;;;;;;;;;;5073672;28;20567;-59
2022/06/15 11:52:25;;;;;;;12.27;4.90;;;;;;;;;;5074065;28;20032;-61
2022/06/15 11:55:03;;;;;;;8.60;4.65;;;;;;;;;;5073236;28;20040;-61
2022/06/15 11:57:39;;;;;;;13.77;4.63;;;;;;;;;;5066435;28;20028;-61
2022/06/15 12:00:09;;;;;;;13.60;3.95;;;;;;;;;;5067438;28;20128;-60
2022/06/15 12:02:36;;;;;;;12.57;4.57;;;;;;;;;;5052689;28;20086;-62
2022/06/15 12:05:18;;;;;;;9.52;4.30;;;;;;;;;;5055359;28;20029;-60
2022/06/15 12:08:21;;;;;;;9.57;4.45;;;;;;;;;;5038310;28;20017;-60
2022/06/15 12:10:53;;;;;;;10.48;3.97;;;;;;;;;;4983322;28;20049;-62
2022/06/15 12:13:19;;;;;;;10.13;4.10;;;;;;;;;;5044396;28;20167;-61
2022/06/15 12:15:52;;;;;;;11.20;4.05;;;;;;;;;;5038281;28;20093;-60
2022/06/15 12:18:26;;;;;;;8.32;3.80;;;;;;;;;;5036053;28;20033;-60
2022/06/15 12:20:57;;;;;;;8.13;3.60;;;;;;;;;;5057486;28;20394;-62
2022/06/15 12:23:30;;;;;;;7.18;3.75;;;;;;;;;;5073560;28;20089;-62
2022/06/15 12:26:13;;;;;;;10.65;3.50;;;;;;;;;;5067588;28;20292;-62
2022/06/15 12:28:39;;;;;;;;;;;;;;;;;;5059107;28;20094;-60
2022/06/15 12:31:27;;;;;;;7.90;3.72;;;;;;;;;;5056093;28;20023;-62
2022/06/15 12:34:03;;;;;;;10.02;3.50;;;;;;;;;;5016465;28;20124;-61
2022/06/15 12:36:37;;;;;;;8.05;3.33;;;;;;;;;;5033533;28;20075;-60
2022/06/15 12:39:13;;;;;;;6.60;3.05;;;;;;;;;;5033712;28;20048;-60
2022/06/15 12:44:45;;;;;;;8.88;3.53;;;;;;;;;;5028657;28;20048;-59
2022/06/15 12:47:13;;;;;;;10.38;3.55;;;;;;;;;;5031946;28;20025;-60
2022/06/15 12:49:56;;;;;;;14.60;3.80;;;;;;;;;;5031912;28;20065;-60
2022/06/15 12:52:23;;;;;;;9.05;3.05;;;;;;;;;;5031412;28;20029;-60
2022/06/15 12:54:50;;;;;;;10.05;3.65;;;;;;;;;;5032059;28;20096;-60
2022/06/15 12:57:24;;;;;;;7.90;3.00;;;;;;;;;;5031269;28;20060;-60
2022/06/15 12:59:51;;;;;;;8.48;3.20;;;;;;;;;;5032116;28;20041;-60
2022/06/15 13:02:21;;;;;;;13.63;3.20;;;;;;;;;;5030759;28;20583;-59
2022/06/15 13:04:54;;;;;;;11.50;3.30;;;;;;;;;;5032043;28;20120;-60
2022/06/15 13:07:27;;;;;;;7.22;2.75;;;;;;;;;;5031774;28;20028;-60
2022/06/15 13:10:09;;;;;;;6.97;2.72;;;;;;;;;;5026880;28;20025;-61
2022/06/15 13:12:36;;;;;;;8.70;2.67;;;;;;;;;;5028402;28;20040;-60
2022/06/15 13:15:04;;;;;;;6.03;2.65;;;;;;;;;;5029409;28;20391;-60
2022/06/15 13:18:08;;;;;;;9.57;2.53;;;;;;;;;;5033008;28;20029;-61
2022/06/15 13:20:55;;;;;;;8.75;2.80;;;;;;;;;;5009159;28;20565;-61
2022/06/15 13:23:39;;;;;;;7.80;2.25;;;;;;;;;;5020359;28;20033;-62
2022/06/15 13:26:13;;;;;;;7.65;2.47;;;;;;;;;;5011894;28;20124;-60
2022/06/15 13:29:06;;;;;;;5.43;2.30;;;;;;;;;;5021556;28;20040;-61
2022/06/15 13:31:48;;;;;;;6.88;2.42;;;;;;;;;;5031392;28;20053;-62
2022/06/15 13:34:16;;;;;;;6.18;2.55;;;;;;;;;;5061340;28;20045;-61
2022/06/15 13:36:43;;;;;;;7.55;2.47;;;;;;;;;;5065193;28;20674;-63
2022/06/15 13:39:49;;;;;;;6.53;2.28;;;;;;;;;;5071278;28;20071;-65
2022/06/15 13:42:22;;;;;;;6.28;1.95;;;;;;;;;;4969174;28;20531;-60
2022/06/15 13:45:08;;;;;;;8.70;2.47;;;;;;;;;;4970330;28;20031;-61
2022/06/15 13:47:46;;;;;;;14.52;2.38;;;;;;;;;;5009889;28;20045;-59
2022/06/15 13:50:13;;;;;;;6.22;2.50;;;;;;;;;;5070313;28;20115;-61
2022/06/15 13:52:41;;;;;;;7.68;2.38;;;;;;;;;;5069837;28;20028;-61
2022/06/15 13:55:17;;;;;;;8.27;2.33;;;;;;;;;;5070832;28;20040;-61
2022/06/15 13:57:46;;;;;;;4.40;2.10;;;;;;;;;;5071231;28;20049;-59
2022/06/15 14:00:22;;;;;;;5.93;2.03;;;;;;;;;;5069712;28;20021;-61
2022/06/15 14:03:08;;;;;;;7.53;2.90;;;;;;;;;;5064976;28;20482;-59
2022/06/15 14:05:53;;;;;;;7.32;2.10;;;;;;;;;;5050092;28;20021;-59
2022/06/15 14:08:20;;;;;;;7.30;1.90;;;;;;;;;;5050687;28;20083;-61
2022/06/15 14:11:19;;;;;;;9.00;2.10;;;;;;;;;;5050625;28;20040;-61
2022/06/15 14:13:52;;;;;;;10.52;2.58;;;;;;;;;;5005500;28;20049;-59
2022/06/15 14:16:37;;;;;;;10.15;2.42;;;;;;;;;;5051048;28;20033;-60
2022/06/15 14:19:07;;;;;;;7.22;2.30;;;;;;;;;;5032145;28;20061;-61
2022/06/15 14:21:37;;;;;;;9.60;2.15;;;;;;;;;;5050675;28;20473;-60
2022/06/15 14:24:19;;;;;;;7.82;2.28;;;;;;;;;;5049417;28;20060;-61
2022/06/15 14:26:47;;;;;;;10.53;2.13;;;;;;;;;;5050698;28;20116;-61
2022/06/15 14:29:15;;;;;;;12.70;2.13;;;;;;;;;;5050838;28;20067;-59
2022/06/15 14:31:44;;;;;;;13.45;2.08;;;;;;;;;;5049480;28;20122;-59
2022/06/15 14:34:15;;;;;;;7.00;1.77;;;;;;;;;;5051175;28;20051;-60
2022/06/15 14:36:56;;;;;;;12.30;2.30;;;;;;;;;;5050695;28;20025;-60
2022/06/15 14:39:24;;;;;;;6.35;1.73;;;;;;;;;;5050826;28;20043;-61
2022/06/15 14:42:06;;;;;;;7.25;2.13;;;;;;;;;;5059277;28;20103;-61
2022/06/15 14:44:34;;;;;;;15.63;2.17;;;;;;;;;;5070149;28;20029;-61
2022/06/15 14:47:03;;;;;;;11.88;2.80;;;;;;;;;;5058250;28;20032;-61
2022/06/15 14:49:35;;;;;;;8.27;1.90;;;;;;;;;;5053944;28;20040;-60
2022/06/15 14:52:20;;;;;;;9.55;1.80;;;;;;;;;;5050187;28;20494;-60
2022/06/15 14:54:49;;;;;;;11.98;2.00;;;;;;;;;;5055748;28;20028;-60
2022/06/15 14:57:21;;;;;;;9.75;2.25;;;;;;;;;;5052962;28;20415;-61
2022/06/15 14:59:50;;;;;;;19.00;2.33;;;;;;;;;;5066168;28;20389;-60
2022/06/15 15:02:17;;;;;;;16.55;2.65;;;;;;;;;;5070563;28;20162;-59
2022/06/15 15:04:49;;;;;;;20.33;3.58;;;;;;;;;;5070452;28;20040;-60
2022/06/15 15:10:23;;;;;;;25.67;3.25;;;;;;;;;;5070202;28;20046;-60
2022/06/15 15:12:50;;;;;;;17.52;3.85;;;;;;;;;;5067578;28;20036;-59
2022/06/15 15:15:18;;;;;;;14.88;3.20;;;;;;;;;;5054960;28;20051;-60
2022/06/15 15:17:57;;;;;;;26.95;3.88;;;;;;;;;;5073863;28;20056;-60